Terminal Aerodrome Forecast
Issued by NWS

Home | Current Version | Previous Version | Text Only | Print | Product List | Glossary Off
Versions: 1 2 3 4 5 6 7 8 9 10 11 12 13 14 15 16 17 18 19 20 21 22 23 24 25

691
FTUS43 KABR 262339
TAFPIR
TAF
KPIR 262339Z 2700/2724 06014KT P6SM -RA OVC015
     FM270200 04014KT 5SM -RA BR OVC010
     FM271000 02015KT 3SM -RA BR OVC003
     FM271500 02016KT 2SM RA OVC003=

USA.gov is the U.S. government's official web portal to all federal, state and local government web resources and services.